createdAt,value
2022-08-08T00:00:54.303Z,100936.44
2022-08-08T00:02:33.070Z,100934.63
2022-08-08T00:05:09.605Z,100929.34
2022-08-08T00:07:45.655Z,100922.25
2022-08-08T00:10:22.773Z,100915.16
2022-08-08T00:13:06.003Z,100916.91
2022-08-08T00:15:56.064Z,100913.38
2022-08-08T00:18:36.217Z,100915.09
2022-08-08T00:21:07.863Z,100918.56
2022-08-08T00:23:47.665Z,100919.44
2022-08-08T00:26:32.615Z,100918.56
2022-08-08T00:29:08.199Z,100913.22
2022-08-08T00:32:21.542Z,100914.97
2022-08-08T00:35:06.867Z,100914.94
2022-08-08T00:37:57.193Z,100910.50
2022-08-08T00:41:14.726Z,100913.13
2022-08-08T00:44:30.898Z,100917.50
2022-08-08T00:48:02.142Z,100918.38
2022-08-08T00:51:11.170Z,100912.13
2022-08-08T00:54:15.767Z,100915.63
2022-08-08T00:57:34.562Z,100919.09
2022-08-08T01:00:13.383Z,100919.06
2022-08-08T01:03:58.421Z,100919.03
2022-08-08T01:06:47.590Z,100919.03
2022-08-08T01:09:48.615Z,100918.09
2022-08-08T01:13:09.101Z,100920.72
2022-08-08T01:16:03.617Z,100918.03
2022-08-08T01:19:51.809Z,100921.53
2022-08-08T01:22:44.278Z,100922.41
2022-08-08T01:25:54.110Z,100920.63
2022-08-08T01:28:52.755Z,100917.94
2022-08-08T01:32:23.843Z,100924.06
2022-08-08T01:35:29.583Z,100917.88
2022-08-08T01:38:41.067Z,100910.75
2022-08-08T01:41:22.683Z,100913.38
2022-08-08T01:44:04.426Z,100911.56
2022-08-08T01:46:52.327Z,100908.84
2022-08-08T01:49:43.470Z,100911.47
2022-08-08T01:53:09.319Z,100907.00
2022-08-08T01:56:27.070Z,100916.66
2022-08-08T01:58:38.646Z,100920.09
2022-08-08T02:01:24.107Z,100914.75
2022-08-08T02:04:06.942Z,100920.88
2022-08-08T02:07:01.276Z,100915.47
2022-08-08T02:10:04.407Z,100914.53
2022-08-08T02:12:51.542Z,100918.84
2022-08-08T02:15:34.561Z,100914.41
2022-08-08T02:18:15.123Z,100922.34
2022-08-08T02:21:08.316Z,100920.53
2022-08-08T02:23:45.009Z,100912.56
2022-08-08T02:26:21.493Z,100913.44
2022-08-08T02:29:03.573Z,100911.66
2022-08-08T02:31:58.988Z,100916.94
2022-08-08T02:35:07.579Z,100915.13
2022-08-08T02:38:13.634Z,100910.72
2022-08-08T02:40:50.163Z,100901.88
2022-08-08T02:44:42.671Z,100906.28
2022-08-08T02:47:10.547Z,100905.38
2022-08-08T02:50:08.335Z,100904.50
2022-08-08T02:53:09.826Z,100900.09
2022-08-08T02:56:19.808Z,100913.28
2022-08-08T02:59:57.720Z,100910.66
2022-08-08T03:02:53.015Z,100907.97
2022-08-08T03:05:46.780Z,100904.44
2022-08-08T03:09:05.076Z,100909.72
2022-08-08T03:12:14.041Z,100907.06
2022-08-08T03:16:04.029Z,100907.06
2022-08-08T03:18:05.019Z,100904.41
2022-08-08T03:20:43.184Z,100906.16
2022-08-08T03:23:20.446Z,100905.28
2022-08-08T03:25:50.963Z,100907.91
2022-08-08T03:28:28.251Z,100909.69
2022-08-08T03:31:24.717Z,100907.00
2022-08-08T03:34:00.901Z,100919.34
2022-08-08T03:36:33.323Z,100915.81
2022-08-08T03:39:14.246Z,100923.75
2022-08-08T03:42:26.495Z,100919.31
2022-08-08T03:44:39.301Z,100921.94
2022-08-08T03:47:19.646Z,100930.72
2022-08-08T03:49:57.709Z,100927.19
2022-08-08T03:52:28.110Z,100932.47
2022-08-08T03:55:10.681Z,100929.78
2022-08-08T03:58:35.256Z,100937.69
2022-08-08T04:00:33.681Z,100944.72
2022-08-08T04:03:11.562Z,100944.69
2022-08-08T04:05:47.906Z,100947.31
2022-08-08T04:08:33.074Z,100945.53
2022-08-08T04:11:11.221Z,100955.22
2022-08-08T04:14:33.373Z,100957.84
2022-08-08T04:17:22.210Z,100948.94
2022-08-08T04:20:28.213Z,100950.66
2022-08-08T04:23:19.109Z,100952.44
2022-08-08T04:26:10.794Z,100949.75
2022-08-08T04:28:41.820Z,100950.63
2022-08-08T04:31:11.854Z,100957.63
2022-08-08T04:34:00.197Z,100956.69
2022-08-08T04:36:29.506Z,100960.22
2022-08-08T04:39:48.075Z,100950.53
2022-08-08T04:41:49.331Z,100961.94
2022-08-08T04:44:19.698Z,100959.28
2022-08-08T04:46:52.498Z,100959.25
2022-08-08T04:49:28.894Z,100966.28
2022-08-08T04:52:13.247Z,100969.81
2022-08-08T04:54:42.995Z,100966.28
2022-08-08T04:57:13.595Z,100977.72
2022-08-08T04:59:43.451Z,100969.81
2022-08-08T05:02:13.633Z,100970.69
2022-08-08T05:04:44.329Z,100975.97
2022-08-08T05:07:14.828Z,100974.22
2022-08-08T05:09:43.967Z,100971.53
2022-08-08T05:12:20.995Z,100974.16
2022-08-08T05:14:52.286Z,100983.03
2022-08-08T05:17:22.058Z,100972.44
2022-08-08T05:20:09.479Z,100979.53
2022-08-08T05:22:41.747Z,100976.91
2022-08-08T05:25:11.226Z,100969.03
2022-08-08T05:27:44.379Z,100972.56
2022-08-08T05:30:15.752Z,100977.00
2022-08-08T05:32:47.482Z,100975.22
2022-08-08T05:35:23.825Z,100977.03
2022-08-08T05:38:00.885Z,100976.19
2022-08-08T05:40:57.880Z,100970.09
2022-08-08T05:44:02.311Z,100973.63
2022-08-08T05:46:21.778Z,100971.91
2022-08-08T05:48:54.301Z,100977.22
2022-08-08T05:51:26.231Z,100979.94
2022-08-08T05:54:27.815Z,100981.75
2022-08-08T05:56:48.480Z,100983.56
2022-08-08T06:00:00.617Z,100988.06
2022-08-08T06:02:41.024Z,100994.25
2022-08-08T06:05:33.822Z,100983.78
2022-08-08T06:08:09.618Z,100987.38
2022-08-08T06:10:41.159Z,100991.91
2022-08-08T06:13:12.386Z,100994.59
2022-08-08T06:15:51.346Z,100996.50
2022-08-08T06:18:30.039Z,100999.28
2022-08-08T06:21:03.678Z,101004.66
2022-08-08T06:23:52.724Z,101010.91
2022-08-08T06:26:38.327Z,101006.63
2022-08-08T06:29:26.417Z,101011.97
2022-08-08T06:32:17.090Z,101017.38
2022-08-08T06:35:12.106Z,101017.50
2022-08-08T06:37:50.978Z,101016.72
2022-08-08T06:40:29.916Z,101015.03
2022-08-08T06:43:06.168Z,101013.38
2022-08-08T06:45:45.036Z,101016.97
2022-08-08T06:48:18.942Z,101014.41
2022-08-08T06:50:52.120Z,101022.44
2022-08-08T06:53:23.880Z,101025.19
2022-08-08T06:56:00.823Z,101018.19
2022-08-08T06:58:33.535Z,101020.00
2022-08-08T07:01:24.296Z,101031.59
2022-08-08T07:04:41.569Z,101023.69
2022-08-08T07:06:57.567Z,101028.22
2022-08-08T07:09:45.548Z,101033.56
2022-08-08T07:12:35.186Z,101030.09
2022-08-08T07:15:15.565Z,101043.41
2022-08-08T07:18:35.706Z,101041.69
2022-08-08T07:21:02.227Z,101039.97
2022-08-08T07:24:02.017Z,101045.34
2022-08-08T07:26:38.972Z,101056.03
2022-08-08T07:29:20.251Z,101057.81
2022-08-08T07:32:00.027Z,101057.00
2022-08-08T07:34:34.066Z,101055.28
2022-08-08T07:37:13.838Z,101058.88
2022-08-08T07:39:57.690Z,101063.34
2022-08-08T07:42:33.245Z,101062.50
2022-08-08T07:45:05.286Z,101059.03
2022-08-08T07:47:38.964Z,101060.88
2022-08-08T07:50:11.265Z,101066.22
2022-08-08T07:52:47.330Z,101061.00
2022-08-08T07:55:29.026Z,101066.34
2022-08-08T07:58:12.906Z,101073.50
2022-08-08T08:00:47.560Z,101070.88
2022-08-08T08:03:28.395Z,101073.59
2022-08-08T08:06:01.919Z,101071.88
2022-08-08T08:08:41.832Z,101071.06
2022-08-08T08:11:23.234Z,101079.97
2022-08-08T08:14:07.433Z,101071.13
2022-08-08T08:16:43.503Z,101077.38
2022-08-08T08:19:21.247Z,101080.97
2022-08-08T08:21:56.882Z,101080.13
2022-08-08T08:24:42.947Z,101081.03
2022-08-08T08:27:14.954Z,101086.44
2022-08-08T08:29:50.955Z,101086.47
2022-08-08T08:32:31.850Z,101077.66
2022-08-08T08:35:07.071Z,101082.13
2022-08-08T08:37:59.177Z,101075.94
2022-08-08T08:40:27.619Z,101072.44
2022-08-08T08:42:57.442Z,101072.44
2022-08-08T08:45:26.733Z,101077.81
2022-08-08T08:48:03.217Z,101074.28
2022-08-08T08:50:40.994Z,101077.81
2022-08-08T08:53:27.729Z,101077.84
2022-08-08T08:56:18.297Z,101072.56
2022-08-08T08:58:56.893Z,101070.78
2022-08-08T09:01:35.110Z,101073.50
2022-08-08T09:04:31.000Z,101071.72
2022-08-08T09:07:00.165Z,101072.66
2022-08-08T09:09:39.596Z,101078.84
2022-08-08T09:12:20.292Z,101077.97
2022-08-08T09:14:52.503Z,101077.97
2022-08-08T09:17:41.272Z,101077.09
2022-08-08T09:21:59.581Z,101084.16
2022-08-08T09:23:03.426Z,101082.38
2022-08-08T09:25:54.948Z,101079.72
2022-08-08T09:28:38.240Z,101079.72
2022-08-08T09:31:15.469Z,101070.84
2022-08-08T09:34:15.443Z,101076.16
2022-08-08T09:36:51.634Z,101075.28
2022-08-08T09:39:43.020Z,101072.59
2022-08-08T09:42:22.199Z,101080.59
2022-08-08T09:45:15.286Z,101079.66
2022-08-08T09:48:11.475Z,101079.66
2022-08-08T09:50:43.928Z,101080.53
2022-08-08T09:53:24.703Z,101074.28
2022-08-08T09:56:22.056Z,101077.81
2022-08-08T09:58:58.396Z,101072.47
2022-08-08T10:01:58.254Z,101072.44
2022-08-08T10:04:41.300Z,101067.97
2022-08-08T10:07:15.724Z,101079.50
2022-08-08T10:10:00.016Z,101076.84
2022-08-08T10:12:53.964Z,101076.75
2022-08-08T10:15:27.267Z,101072.28
2022-08-08T10:18:10.220Z,101067.81
2022-08-08T10:20:51.114Z,101066.91
2022-08-08T10:23:44.078Z,101063.31
2022-08-08T10:26:30.785Z,101074.84
2022-08-08T10:29:20.780Z,101071.19
2022-08-08T10:32:15.619Z,101063.16
2022-08-08T10:34:57.030Z,101059.56
2022-08-08T10:37:34.607Z,101061.31
2022-08-08T10:40:16.334Z,101058.56
2022-08-08T10:42:48.259Z,101061.22
2022-08-08T10:45:18.757Z,101062.09
2022-08-08T10:47:57.742Z,101055.78
2022-08-08T10:50:39.132Z,101059.28
2022-08-08T10:53:12.875Z,101060.94
2022-08-08T10:55:46.508Z,101060.88
2022-08-08T10:58:16.035Z,101064.31
2022-08-08T11:00:48.792Z,101066.00
2022-08-08T11:04:01.432Z,101058.81
2022-08-08T11:06:41.791Z,101045.41
2022-08-08T11:09:21.706Z,101051.53
2022-08-08T11:12:05.322Z,101048.88
2022-08-08T11:14:50.515Z,101046.13
2022-08-08T11:17:58.339Z,101045.16
2022-08-08T11:20:13.905Z,101047.69
2022-08-08T11:22:44.768Z,101041.34
2022-08-08T11:25:16.478Z,101038.56
2022-08-08T11:27:48.005Z,101035.78
2022-08-08T11:30:24.517Z,101040.94
2022-08-08T11:32:58.294Z,101034.53
2022-08-08T11:35:42.302Z,101042.44
2022-08-08T11:38:39.646Z,101031.53
2022-08-08T11:41:03.534Z,101037.69
2022-08-08T11:43:39.276Z,101037.56
2022-08-08T11:46:14.451Z,101044.56
2022-08-08T11:48:51.663Z,101039.97
2022-08-08T11:51:30.145Z,101029.09
2022-08-08T11:54:32.360Z,101024.47
2022-08-08T11:57:17.220Z,101030.53
2022-08-08T11:59:58.401Z,101032.19
2022-08-08T12:02:54.728Z,101027.59
2022-08-08T12:05:33.710Z,101026.53
2022-08-08T12:08:04.230Z,101017.50
2022-08-08T12:10:36.302Z,101023.56
2022-08-08T12:13:10.046Z,101024.19
2022-08-08T12:15:46.702Z,101023.13
2022-08-08T12:18:21.614Z,101022.94
2022-08-08T12:20:54.336Z,101018.38
2022-08-08T12:23:43.195Z,101006.84
2022-08-08T12:26:27.892Z,101010.38
2022-08-08T12:29:21.773Z,101016.38
2022-08-08T12:32:09.656Z,101015.25
2022-08-08T12:34:48.619Z,101010.66
2022-08-08T12:37:25.728Z,101012.34
2022-08-08T12:40:22.471Z,101010.44
2022-08-08T12:42:55.964Z,101003.16
2022-08-08T12:45:59.590Z,101014.53
2022-08-08T12:48:36.892Z,101014.47
2022-08-08T12:51:11.330Z,101008.00
2022-08-08T12:53:57.463Z,101008.72
2022-08-08T12:56:35.180Z,101006.63
2022-08-08T12:59:16.243Z,101009.16
2022-08-08T13:01:52.807Z,101011.69
2022-08-08T13:04:29.559Z,101008.00
2022-08-08T13:07:03.157Z,101009.53
2022-08-08T13:09:43.303Z,101002.94
2022-08-08T13:12:30.106Z,101000.09
2022-08-08T13:15:08.403Z,101003.63
2022-08-08T13:18:09.836Z,100997.97
2022-08-08T13:20:27.771Z,101004.88
2022-08-08T13:25:50.197Z,100999.06
2022-08-08T13:28:32.417Z,100988.91
2022-08-08T13:31:04.473Z,100994.88
2022-08-08T13:33:42.845Z,100992.63
2022-08-08T13:36:12.016Z,100988.59
2022-08-08T13:38:42.103Z,100977.50
2022-08-08T13:41:17.044Z,100980.75
2022-08-08T13:43:47.469Z,100979.63
2022-08-08T13:46:26.710Z,100978.66
2022-08-08T13:49:11.557Z,100983.03
2022-08-08T13:51:57.034Z,100987.34
2022-08-08T13:54:29.550Z,100977.19
2022-08-08T13:57:04.203Z,100985.97
2022-08-08T13:59:40.994Z,100978.56
2022-08-08T14:02:31.286Z,100982.72
2022-08-08T14:05:09.563Z,100977.75
2022-08-08T14:07:59.559Z,100970.22
2022-08-08T14:10:33.588Z,100971.03
2022-08-08T14:13:31.030Z,100987.84
2022-08-08T14:16:15.997Z,100977.75
2022-08-08T14:18:54.772Z,100989.03
2022-08-08T14:21:39.353Z,100979.06
2022-08-08T14:24:09.781Z,100977.66
2022-08-08T14:26:42.945Z,100974.63
2022-08-08T14:29:30.620Z,100978.63
2022-08-08T14:32:12.580Z,100977.31
2022-08-08T14:34:54.721Z,100974.28
2022-08-08T14:37:42.962Z,100973.97
2022-08-08T14:40:24.062Z,100980.03
2022-08-08T14:42:56.840Z,100974.25
2022-08-08T14:45:46.918Z,100974.00
2022-08-08T14:48:34.113Z,100974.59
2022-08-08T14:51:08.693Z,100971.25
2022-08-08T14:53:55.117Z,100975.94
2022-08-08T14:56:25.796Z,100969.28
2022-08-08T14:58:55.057Z,100978.00
2022-08-08T15:01:40.495Z,100968.50
2022-08-08T15:04:11.524Z,100969.63
2022-08-08T15:06:42.654Z,100965.34
2022-08-08T15:09:15.587Z,100978.78
2022-08-08T15:11:53.104Z,100969.66
2022-08-08T15:14:26.368Z,100971.13
2022-08-08T15:16:56.965Z,100969.19
2022-08-08T15:19:28.856Z,100971.63
2022-08-08T15:21:58.769Z,100975.66
2022-08-08T15:24:31.586Z,100966.63
2022-08-08T15:27:11.941Z,100970.91
2022-08-08T15:29:49.306Z,100972.03
2022-08-08T15:32:22.632Z,100967.91
2022-08-08T15:34:52.299Z,100959.63
2022-08-08T15:37:25.456Z,100962.53
2022-08-08T15:39:55.052Z,100961.19
2022-08-08T15:42:41.472Z,100970.34
2022-08-08T15:45:10.920Z,100949.19
2022-08-08T15:47:39.279Z,100951.47
2022-08-08T15:50:16.969Z,100951.09
2022-08-08T15:52:52.365Z,100953.31
2022-08-08T15:55:20.783Z,100954.03
2022-08-08T15:57:50.848Z,100947.44
2022-08-08T16:00:26.747Z,100948.31
2022-08-08T16:02:59.137Z,100947.53
2022-08-08T16:05:35.978Z,100943.22
2022-08-08T16:08:20.375Z,100953.47
2022-08-08T16:13:10.006Z,100940.94
2022-08-08T16:13:46.716Z,100940.94
2022-08-08T16:16:18.799Z,100939.09
2022-08-08T16:18:53.197Z,100931.94
2022-08-08T16:21:27.905Z,100939.91
2022-08-08T16:24:00.413Z,100940.56
2022-08-08T16:26:33.866Z,100936.16
2022-08-08T16:29:08.247Z,100940.34
2022-08-08T16:31:42.034Z,100933.38
2022-08-08T16:34:18.054Z,100935.38
2022-08-08T16:36:49.290Z,100926.22
2022-08-08T16:39:49.131Z,100937.91
2022-08-08T16:42:18.060Z,100934.56
2022-08-08T16:44:54.399Z,100931.03
2022-08-08T16:47:40.548Z,100935.66
2022-08-08T16:50:14.146Z,100932.44
2022-08-08T16:55:05.065Z,100942.75
2022-08-08T16:55:52.506Z,100939.97
2022-08-08T16:58:25.813Z,100941.38
2022-08-08T17:00:58.851Z,100940.91
2022-08-08T17:03:59.804Z,100943.38
2022-08-08T17:06:36.061Z,100948.50
2022-08-08T17:09:05.012Z,100940.91
2022-08-08T17:11:39.586Z,100937.66
2022-08-08T17:14:19.405Z,100947.09
2022-08-08T17:16:51.848Z,100938.44
2022-08-08T17:19:26.499Z,100943.16
2022-08-08T17:21:55.608Z,100946.25
2022-08-08T17:24:30.045Z,100948.69
2022-08-08T17:27:01.605Z,100949.31
2022-08-08T17:29:33.518Z,100955.38
2022-08-08T17:32:04.191Z,100956.13
2022-08-08T17:35:04.547Z,100962.06
2022-08-08T17:37:25.043Z,100958.50
2022-08-08T17:40:10.617Z,100970.03
2022-08-08T17:42:47.187Z,100970.91
2022-08-08T17:45:23.515Z,100961.72
2022-08-08T17:47:54.577Z,100964.97
2022-08-08T17:50:23.834Z,100969.94
2022-08-08T17:52:56.529Z,100970.38
2022-08-08T17:56:03.623Z,100981.53
2022-08-08T17:58:17.760Z,100973.81
2022-08-08T18:00:47.569Z,100977.84
2022-08-08T18:03:25.750Z,100977.22
2022-08-08T18:05:54.220Z,100982.09
2022-08-08T18:08:38.409Z,100986.06
2022-08-08T18:11:15.449Z,100981.03
2022-08-08T18:13:51.583Z,101001.06
2022-08-08T18:16:23.150Z,100986.97
2022-08-08T18:18:56.343Z,100986.34
2022-08-08T18:21:59.546Z,100990.19
2022-08-08T18:24:21.044Z,100995.00
2022-08-08T18:26:53.856Z,100996.94
2022-08-08T18:29:30.006Z,100994.53
2022-08-08T18:32:04.273Z,100995.63
2022-08-08T18:34:37.853Z,100995.78
2022-08-08T18:37:09.595Z,100990.59
2022-08-08T18:39:42.437Z,100999.78
2022-08-08T18:42:15.989Z,100996.41
2022-08-08T18:44:54.768Z,101000.16
2022-08-08T18:47:25.433Z,101006.63
2022-08-08T18:49:57.360Z,101006.75
2022-08-08T18:52:26.673Z,101015.00
2022-08-08T18:54:59.376Z,101016.91
2022-08-08T18:57:43.395Z,101018.91
2022-08-08T19:00:20.195Z,101022.66
2022-08-08T19:02:55.363Z,101028.22
2022-08-08T19:05:34.611Z,101037.25
2022-08-08T19:08:24.558Z,101041.00
2022-08-08T19:11:01.531Z,101051.91
2022-08-08T19:13:53.279Z,101048.50
2022-08-08T19:16:23.586Z,101050.41
2022-08-08T19:19:00.368Z,101059.50
2022-08-08T19:21:49.501Z,101056.97
2022-08-08T19:24:42.776Z,101063.34
2022-08-08T19:27:14.798Z,101059.00
2022-08-08T19:29:45.754Z,101073.44
2022-08-08T19:32:19.402Z,101066.41
2022-08-08T19:34:51.854Z,101073.63
2022-08-08T19:37:43.920Z,101070.19
2022-08-08T19:40:15.981Z,101080.97
2022-08-08T19:42:45.751Z,101089.94
2022-08-08T19:45:14.534Z,101090.06
2022-08-08T19:48:04.706Z,101086.56
2022-08-08T19:50:34.042Z,101090.22
2022-08-08T19:53:02.405Z,101086.72
2022-08-08T19:55:34.121Z,101094.84
2022-08-08T19:58:02.726Z,101094.06
2022-08-08T20:00:34.378Z,101088.78
2022-08-08T20:03:14.743Z,101108.50
2022-08-08T20:06:15.433Z,101099.66
2022-08-08T20:08:47.775Z,101102.44
2022-08-08T20:11:18.552Z,101099.84
2022-08-08T20:14:12.187Z,101103.44
2022-08-08T20:16:40.724Z,101105.31
2022-08-08T20:19:10.964Z,101108.94
2022-08-08T20:21:41.552Z,101103.66
2022-08-08T20:24:11.959Z,101108.22
2022-08-08T20:26:41.897Z,101104.69
2022-08-08T20:29:20.675Z,101111.91
2022-08-08T20:32:10.523Z,101112.81
2022-08-08T20:34:47.469Z,101103.03
2022-08-08T20:37:16.520Z,101105.75
2022-08-08T20:39:51.967Z,101105.81
2022-08-08T20:42:28.151Z,101112.09
2022-08-08T20:45:00.930Z,101110.34
2022-08-08T20:47:36.443Z,101105.94
2022-08-08T20:50:09.880Z,101105.94
2022-08-08T20:52:39.694Z,101115.78
2022-08-08T20:55:22.669Z,101118.50
2022-08-08T20:57:54.531Z,101108.75
2022-08-08T21:00:27.107Z,101120.34
2022-08-08T21:02:57.866Z,101116.81
2022-08-08T21:05:31.989Z,101122.19
2022-08-08T21:08:37.036Z,101121.25
2022-08-08T21:10:50.346Z,101124.88
2022-08-08T21:13:18.763Z,101122.22
2022-08-08T21:16:06.055Z,101126.66
2022-08-08T21:18:35.785Z,101126.69
2022-08-08T21:21:20.496Z,101127.59
2022-08-08T21:24:08.014Z,101120.50
2022-08-08T21:26:44.809Z,101123.19
2022-08-08T21:29:14.175Z,101119.66
2022-08-08T21:31:53.281Z,101121.44
2022-08-08T21:34:29.852Z,101116.13
2022-08-08T21:37:05.314Z,101123.22
2022-08-08T21:39:54.524Z,101122.38
2022-08-08T21:42:25.595Z,101126.78
2022-08-08T21:44:58.844Z,101122.34
2022-08-08T21:48:07.782Z,101125.88
2022-08-08T21:50:17.982Z,101122.31
2022-08-08T21:54:34.782Z,101124.13
2022-08-08T21:56:26.072Z,101121.44
2022-08-08T21:58:37.556Z,101124.09
2022-08-08T22:01:06.778Z,101128.56
2022-08-08T22:03:56.320Z,101132.09
2022-08-08T22:06:31.264Z,101126.78
2022-08-08T22:09:08.386Z,101141.00
2022-08-08T22:12:02.718Z,101136.56
2022-08-08T22:14:26.927Z,101134.75
2022-08-08T22:16:57.425Z,101134.78
2022-08-08T22:19:30.433Z,101136.56
2022-08-08T22:22:18.781Z,101140.09
2022-08-08T22:24:48.466Z,101148.94
2022-08-08T22:27:17.044Z,101146.28
2022-08-08T22:30:06.506Z,101153.38
2022-08-08T22:32:42.237Z,101156.06
2022-08-08T22:35:23.601Z,101152.47
2022-08-08T22:37:54.044Z,101155.16
2022-08-08T22:40:25.931Z,101163.16
2022-08-08T22:43:00.180Z,101163.13
2022-08-08T22:45:28.905Z,101157.78
2022-08-08T22:47:57.333Z,101150.66
2022-08-08T22:50:28.417Z,101146.25
2022-08-08T22:54:27.383Z,101153.34
2022-08-08T22:55:57.855Z,101155.97
2022-08-08T22:58:33.985Z,101148.88
2022-08-08T23:01:33.698Z,101149.75
2022-08-08T23:03:55.112Z,101158.59
2022-08-08T23:06:25.015Z,101159.47
2022-08-08T23:08:55.483Z,101154.13
2022-08-08T23:12:18.272Z,101155.00
2022-08-08T23:14:16.739Z,101147.91
2022-08-08T23:16:57.700Z,101149.66
2022-08-08T23:19:30.801Z,101149.66
2022-08-08T23:22:04.567Z,101147.00
2022-08-08T23:24:36.308Z,101152.31
2022-08-08T23:27:07.456Z,101140.75
2022-08-08T23:29:35.997Z,101142.50
2022-08-08T23:32:07.069Z,101141.63
2022-08-08T23:34:40.166Z,101154.00
2022-08-08T23:37:24.648Z,101145.13
2022-08-08T23:39:55.389Z,101142.44
2022-08-08T23:42:27.752Z,101145.97
2022-08-08T23:44:56.484Z,101150.44
2022-08-08T23:49:01.309Z,101151.28
2022-08-08T23:50:29.768Z,101148.63
2022-08-08T23:53:03.630Z,101146.81
2022-08-08T23:55:38.387Z,101152.16
2022-08-08T23:58:37.619Z,101147.69
